createdAt,value
2018-03-24T00:02:25.567Z,6.71
2018-03-24T00:04:51.519Z,6.99
2018-03-24T00:07:17.471Z,7.52
2018-03-24T00:09:43.415Z,7.40
2018-03-24T00:12:09.380Z,7.00
2018-03-24T00:14:35.326Z,6.52
2018-03-24T00:17:01.293Z,6.19
2018-03-24T00:19:27.264Z,5.83
2018-03-24T00:21:53.232Z,5.94
2018-03-24T00:24:19.184Z,6.66
2018-03-24T00:26:45.130Z,6.72
2018-03-24T00:29:11.087Z,6.43
2018-03-24T00:31:37.027Z,6.13
2018-03-24T00:34:02.976Z,5.93
2018-03-24T00:36:28.911Z,6.02
2018-03-24T00:38:54.897Z,6.73
2018-03-24T00:41:20.849Z,6.26
2018-03-24T00:43:46.817Z,6.73
2018-03-24T00:46:12.751Z,6.57
2018-03-24T00:48:38.693Z,5.90
2018-03-24T00:51:04.652Z,6.03
2018-03-24T00:53:30.619Z,6.10
2018-03-24T00:55:56.569Z,6.23
2018-03-24T00:58:22.517Z,5.91
2018-03-24T01:00:48.447Z,5.78
2018-03-24T01:03:14.391Z,5.38
2018-03-24T01:05:40.351Z,5.67
2018-03-24T01:08:06.297Z,5.88
2018-03-24T01:10:32.234Z,5.79
2018-03-24T01:12:58.173Z,5.88
2018-03-24T01:15:24.125Z,5.70
2018-03-24T01:17:50.123Z,5.73
2018-03-24T01:20:16.081Z,5.78
2018-03-24T01:22:42.029Z,5.91
2018-03-24T01:25:07.959Z,5.62
2018-03-24T01:27:33.937Z,6.52
2018-03-24T01:29:59.881Z,6.16
2018-03-24T01:32:25.817Z,5.84
2018-03-24T01:34:51.770Z,5.61
2018-03-24T01:37:17.730Z,5.24
2018-03-24T01:39:43.659Z,5.37
2018-03-24T01:42:09.628Z,5.87
2018-03-24T01:44:35.581Z,5.78
2018-03-24T01:47:01.614Z,5.59
2018-03-24T01:49:28.652Z,5.43
2018-03-24T01:51:54.591Z,5.64
2018-03-24T01:54:20.551Z,6.32
2018-03-24T01:56:46.518Z,6.07
2018-03-24T01:59:12.458Z,5.50
2018-03-24T02:01:38.399Z,5.36
2018-03-24T02:04:04.326Z,6.06
2018-03-24T02:06:30.307Z,5.59
2018-03-24T02:08:56.233Z,5.49
2018-03-24T02:11:22.196Z,5.36
2018-03-24T02:13:48.159Z,5.33
2018-03-24T02:16:14.199Z,6.11
2018-03-24T02:18:40.170Z,5.47
2018-03-24T02:21:06.109Z,5.31
2018-03-24T02:23:32.061Z,5.17
2018-03-24T02:25:57.988Z,5.81
2018-03-24T02:28:23.942Z,5.10
2018-03-24T02:30:49.896Z,4.61
2018-03-24T02:33:15.856Z,5.09
2018-03-24T02:35:41.810Z,5.03
2018-03-24T02:38:07.761Z,5.62
2018-03-24T02:40:33.701Z,5.50
2018-03-24T02:42:59.642Z,5.85
2018-03-24T02:45:25.578Z,6.22
2018-03-24T02:47:51.509Z,5.85
2018-03-24T02:50:17.439Z,5.30
2018-03-24T02:52:43.401Z,4.63
2018-03-24T02:55:09.352Z,4.57
2018-03-24T02:57:35.314Z,4.36
2018-03-24T03:00:01.277Z,4.22
2018-03-24T03:02:27.274Z,4.23
2018-03-24T03:04:53.238Z,4.11
2018-03-24T03:07:19.184Z,4.36
2018-03-24T03:09:45.152Z,3.72
2018-03-24T03:12:11.126Z,4.07
2018-03-24T03:14:37.058Z,4.60
2018-03-24T03:17:03.006Z,4.16
2018-03-24T03:19:28.968Z,4.35
2018-03-24T03:21:54.922Z,4.12
2018-03-24T03:24:20.860Z,4.25
2018-03-24T03:26:46.785Z,4.09
2018-03-24T03:29:12.714Z,3.77
2018-03-24T03:31:38.677Z,3.99
2018-03-24T03:34:04.626Z,4.88
2018-03-24T03:36:30.600Z,4.27
2018-03-24T03:38:56.548Z,4.32
2018-03-24T03:41:22.502Z,4.32
2018-03-24T03:43:48.443Z,4.14
2018-03-24T03:46:14.408Z,4.03
2018-03-24T03:48:40.381Z,4.14
2018-03-24T03:51:06.350Z,3.98
2018-03-24T03:53:32.301Z,3.87
2018-03-24T03:55:58.252Z,3.80
2018-03-24T03:58:24.199Z,3.73
2018-03-24T04:00:50.125Z,4.19
2018-03-24T04:03:16.094Z,4.18
2018-03-24T04:05:42.084Z,4.18
2018-03-24T04:08:08.063Z,3.99
2018-03-24T04:10:34.037Z,3.84
2018-03-24T04:12:59.993Z,3.66
2018-03-24T04:15:25.926Z,3.85
2018-03-24T04:17:51.875Z,3.67
2018-03-24T04:20:17.834Z,3.59
2018-03-24T04:22:43.786Z,3.47
2018-03-24T04:25:09.736Z,3.56
2018-03-24T04:27:35.710Z,3.30
2018-03-24T04:30:01.655Z,3.33
2018-03-24T04:32:27.586Z,3.61
2018-03-24T04:34:53.522Z,3.63
2018-03-24T04:37:19.454Z,3.99
2018-03-24T04:39:45.379Z,3.98
2018-03-24T04:42:11.322Z,3.62
2018-03-24T04:44:37.286Z,3.43
2018-03-24T04:47:03.234Z,3.46
2018-03-24T04:49:29.161Z,3.64
2018-03-24T04:51:55.148Z,3.69
2018-03-24T04:54:21.070Z,3.43
2018-03-24T04:56:46.998Z,3.31
2018-03-24T04:59:12.947Z,3.33
2018-03-24T05:01:38.902Z,3.45
2018-03-24T05:04:04.838Z,3.59
2018-03-24T05:06:30.816Z,3.17
2018-03-24T05:08:56.766Z,3.49
2018-03-24T05:11:22.724Z,3.56
2018-03-24T05:13:48.686Z,3.63
2018-03-24T05:16:14.634Z,3.61
2018-03-24T05:18:40.579Z,3.53
2018-03-24T05:21:06.538Z,3.53
2018-03-24T05:23:32.496Z,3.55
2018-03-24T05:25:58.454Z,3.40
2018-03-24T05:28:24.417Z,3.84
2018-03-24T05:30:50.348Z,3.88
2018-03-24T05:33:16.291Z,4.02
2018-03-24T05:35:42.273Z,3.80
2018-03-24T05:38:08.223Z,3.76
2018-03-24T05:40:34.150Z,3.70
2018-03-24T05:43:00.091Z,4.54
2018-03-24T05:45:26.043Z,4.38
2018-03-24T05:47:52.026Z,4.26
2018-03-24T05:50:17.966Z,4.40
2018-03-24T05:52:43.924Z,4.63
2018-03-24T05:55:09.901Z,4.94
2018-03-24T05:57:35.863Z,4.84
2018-03-24T06:00:01.830Z,4.60
2018-03-24T06:02:27.795Z,4.72
2018-03-24T06:04:53.750Z,5.03
2018-03-24T06:07:19.701Z,5.13
2018-03-24T06:09:45.631Z,4.92
2018-03-24T06:12:11.570Z,5.16
2018-03-24T06:14:37.503Z,5.17
2018-03-24T06:17:03.477Z,5.49
2018-03-24T06:19:29.431Z,5.61
2018-03-24T06:21:55.397Z,5.53
2018-03-24T06:24:21.355Z,5.93
2018-03-24T06:26:47.351Z,6.02
2018-03-24T06:29:13.298Z,6.39
2018-03-24T06:31:39.277Z,6.38
2018-03-24T06:34:05.215Z,6.30
2018-03-24T06:36:31.174Z,6.20
2018-03-24T06:38:57.130Z,7.07
2018-03-24T06:41:23.125Z,7.18
2018-03-24T06:43:49.075Z,7.47
2018-03-24T06:46:15.007Z,7.76
2018-03-24T06:48:40.974Z,7.77
2018-03-24T06:51:06.945Z,8.11
2018-03-24T06:53:32.916Z,8.10
2018-03-24T06:55:58.841Z,7.76
2018-03-24T06:58:24.785Z,7.95
2018-03-24T07:00:50.746Z,8.22
2018-03-24T07:03:16.699Z,8.25
2018-03-24T07:05:42.689Z,8.29
2018-03-24T07:08:08.654Z,8.25
2018-03-24T07:10:34.607Z,8.59
2018-03-24T07:13:00.560Z,8.81
2018-03-24T07:15:26.519Z,9.15
2018-03-24T07:17:52.463Z,9.20
2018-03-24T07:20:18.401Z,9.87
2018-03-24T07:22:44.379Z,9.79
2018-03-24T07:25:10.323Z,9.99
2018-03-24T07:27:36.295Z,10.04
2018-03-24T07:30:02.276Z,10.30
2018-03-24T07:32:28.257Z,10.87
2018-03-24T07:34:54.233Z,11.10
2018-03-24T07:37:20.209Z,10.85
2018-03-24T07:39:46.169Z,10.76
2018-03-24T07:42:12.150Z,11.02
2018-03-24T07:44:38.118Z,10.86
2018-03-24T07:47:04.107Z,11.06
2018-03-24T07:49:30.055Z,11.29
2018-03-24T07:51:56.015Z,11.68
2018-03-24T07:54:21.995Z,11.68
2018-03-24T07:56:47.984Z,11.64
2018-03-24T07:59:13.937Z,11.53
2018-03-24T08:01:39.901Z,11.43
2018-03-24T08:04:05.880Z,11.38
2018-03-24T08:06:31.848Z,11.32
2018-03-24T08:08:57.800Z,11.53
2018-03-24T08:11:23.806Z,12.26
2018-03-24T08:13:49.757Z,12.78
2018-03-24T08:16:15.714Z,12.51
2018-03-24T08:18:41.652Z,12.61
2018-03-24T08:21:07.613Z,12.18
2018-03-24T08:23:33.577Z,11.88
2018-03-24T08:25:59.534Z,11.87
2018-03-24T08:28:25.478Z,11.50
2018-03-24T08:30:51.484Z,11.04
2018-03-24T08:33:17.431Z,10.28
2018-03-24T08:35:43.386Z,10.72
2018-03-24T08:38:09.346Z,11.17
2018-03-24T08:40:35.332Z,11.04
2018-03-24T08:43:01.294Z,11.29
2018-03-24T08:45:27.256Z,10.58
2018-03-24T08:47:53.214Z,11.16
2018-03-24T08:50:19.178Z,11.11
2018-03-24T08:52:45.129Z,10.90
2018-03-24T08:55:11.114Z,10.75
2018-03-24T08:57:37.065Z,10.97
2018-03-24T09:00:03.066Z,11.00
2018-03-24T09:02:29.034Z,11.49
2018-03-24T09:04:54.994Z,11.65
2018-03-24T09:07:20.950Z,11.31
2018-03-24T09:09:46.944Z,11.20
2018-03-24T09:12:12.886Z,11.59
2018-03-24T09:14:38.846Z,11.53
2018-03-24T09:17:05.890Z,11.40
2018-03-24T09:19:31.846Z,11.66
2018-03-24T09:21:57.822Z,11.62
2018-03-24T09:24:23.777Z,11.33
2018-03-24T09:26:49.728Z,11.32
2018-03-24T09:29:15.747Z,11.42
2018-03-24T09:31:41.693Z,11.61
2018-03-24T09:34:07.645Z,11.82
2018-03-24T09:36:33.592Z,11.59
2018-03-24T09:38:59.558Z,11.04
2018-03-24T09:41:25.547Z,11.08
2018-03-24T09:43:51.494Z,11.19
2018-03-24T09:46:17.482Z,11.37
2018-03-24T09:48:44.536Z,11.53
2018-03-24T09:51:10.487Z,11.40
2018-03-24T09:53:36.459Z,11.83
2018-03-24T09:56:02.411Z,12.00
2018-03-24T09:58:28.401Z,11.97
2018-03-24T10:00:54.387Z,11.90
2018-03-24T10:03:20.335Z,12.02
2018-03-24T10:05:46.297Z,12.05
2018-03-24T10:08:12.248Z,11.63
2018-03-24T10:10:39.239Z,11.32
2018-03-24T10:13:05.215Z,11.10
2018-03-24T10:15:31.177Z,11.17
2018-03-24T10:17:57.147Z,11.59
2018-03-24T10:20:23.115Z,11.95
2018-03-24T10:22:49.051Z,11.84
2018-03-24T10:25:15.011Z,11.59
2018-03-24T10:27:40.948Z,11.69
2018-03-24T10:30:06.908Z,11.61
2018-03-24T10:32:32.871Z,11.69
2018-03-24T10:34:58.808Z,11.71
2018-03-24T10:37:24.772Z,11.87
2018-03-24T10:39:50.739Z,11.74
2018-03-24T10:42:16.716Z,11.73
2018-03-24T10:44:42.686Z,11.71
2018-03-24T10:47:08.625Z,11.63
2018-03-24T10:49:34.603Z,11.80
2018-03-24T10:52:04.624Z,11.67
2018-03-24T10:54:30.585Z,11.42
2018-03-24T10:56:56.551Z,11.44
2018-03-24T10:59:22.498Z,11.40
2018-03-24T11:01:48.459Z,11.41
2018-03-24T11:04:14.404Z,10.85
2018-03-24T11:06:40.457Z,11.22
2018-03-24T11:09:06.410Z,11.45
2018-03-24T11:11:32.364Z,11.37
2018-03-24T11:13:58.389Z,11.47
2018-03-24T11:16:24.359Z,11.49
2018-03-24T11:18:50.356Z,11.59
2018-03-24T11:21:16.414Z,11.53
2018-03-24T11:23:42.412Z,11.64
2018-03-24T11:26:08.381Z,11.61
2018-03-24T11:28:34.376Z,11.34
2018-03-24T11:31:00.337Z,11.33
2018-03-24T11:33:26.278Z,11.52
2018-03-24T11:35:52.247Z,11.72
2018-03-24T11:38:18.206Z,11.86
2018-03-24T11:40:44.168Z,11.91
2018-03-24T11:43:10.106Z,11.55
2018-03-24T11:45:36.075Z,11.51
2018-03-24T11:48:02.043Z,11.57
2018-03-24T11:50:27.994Z,11.68
2018-03-24T11:52:53.956Z,11.86
2018-03-24T11:55:19.893Z,12.00
2018-03-24T11:57:45.862Z,11.90
2018-03-24T12:00:11.827Z,11.65
2018-03-24T12:02:37.775Z,11.51
2018-03-24T12:05:03.739Z,11.61
2018-03-24T12:07:29.749Z,11.63
2018-03-24T12:09:55.905Z,11.90
2018-03-24T12:12:21.865Z,11.87
2018-03-24T12:14:47.859Z,11.59
2018-03-24T12:17:15.907Z,11.97
2018-03-24T12:19:41.856Z,11.76
2018-03-24T12:22:07.814Z,11.77
2018-03-24T12:24:33.791Z,11.64
2018-03-24T12:26:59.745Z,11.07
2018-03-24T12:29:25.717Z,11.00
2018-03-24T12:31:51.651Z,10.74
2018-03-24T12:34:17.619Z,10.62
2018-03-24T12:36:43.575Z,10.59
2018-03-24T12:39:09.536Z,10.70
2018-03-24T12:41:35.495Z,10.71
2018-03-24T12:44:01.493Z,10.88
2018-03-24T12:46:27.469Z,10.93
2018-03-24T12:48:53.449Z,10.70
2018-03-24T12:51:19.424Z,10.91
2018-03-24T12:53:45.389Z,11.19
2018-03-24T12:56:11.351Z,11.48
2018-03-24T12:58:37.312Z,11.57
2018-03-24T13:01:03.281Z,11.11
2018-03-24T13:03:29.241Z,11.18
2018-03-24T13:05:55.209Z,10.88
2018-03-24T13:08:21.181Z,10.98
2018-03-24T13:10:47.166Z,10.93
2018-03-24T13:13:13.111Z,10.83
2018-03-24T13:15:39.078Z,10.58
2018-03-24T13:18:05.049Z,10.56
2018-03-24T13:20:31.049Z,10.63
2018-03-24T13:22:57.010Z,11.13
2018-03-24T13:25:22.994Z,11.15
2018-03-24T13:27:48.968Z,10.94
2018-03-24T13:30:14.923Z,10.69
2018-03-24T13:32:40.877Z,10.54
2018-03-24T13:35:06.858Z,10.34
2018-03-24T13:37:32.837Z,10.57
2018-03-24T13:39:58.817Z,10.64
2018-03-24T13:42:24.785Z,10.60
2018-03-24T13:44:50.761Z,11.04
2018-03-24T13:47:16.721Z,11.20
2018-03-24T13:49:42.687Z,11.31
2018-03-24T13:52:08.623Z,11.39
2018-03-24T13:54:34.570Z,11.25
2018-03-24T13:57:00.526Z,11.03
2018-03-24T13:59:26.497Z,11.31
2018-03-24T14:01:52.476Z,11.13
2018-03-24T14:04:18.484Z,10.84
2018-03-24T14:06:44.435Z,10.65
2018-03-24T14:09:10.404Z,10.68
2018-03-24T14:11:36.346Z,10.83
2018-03-24T14:14:02.301Z,10.73
2018-03-24T14:16:28.289Z,10.98
2018-03-24T14:18:54.231Z,11.31
2018-03-24T14:21:20.199Z,10.88
2018-03-24T14:23:46.168Z,11.02
2018-03-24T14:26:12.139Z,11.00
2018-03-24T14:28:38.122Z,10.52
2018-03-24T14:31:04.098Z,10.46
2018-03-24T14:33:30.057Z,10.46
2018-03-24T14:35:56.018Z,10.76
2018-03-24T14:38:21.985Z,11.15
2018-03-24T14:40:49.070Z,11.05
2018-03-24T14:43:15.046Z,10.71
2018-03-24T14:45:41.030Z,10.64
2018-03-24T14:48:07.018Z,10.75
2018-03-24T14:50:33.050Z,10.63
2018-03-24T14:52:59.062Z,10.77
2018-03-24T14:55:25.033Z,10.75
2018-03-24T14:57:51.016Z,10.50
2018-03-24T15:00:16.983Z,10.46
2018-03-24T15:02:42.937Z,10.45
2018-03-24T15:05:08.890Z,10.37
2018-03-24T15:07:34.890Z,10.54
2018-03-24T15:10:00.836Z,10.44
2018-03-24T15:12:26.943Z,10.47
2018-03-24T15:14:52.899Z,10.65
2018-03-24T15:17:18.852Z,10.22
2018-03-24T15:19:44.813Z,10.41
2018-03-24T15:22:10.747Z,10.27
2018-03-24T15:24:36.686Z,10.43
2018-03-24T15:27:02.642Z,10.42
2018-03-24T15:29:28.594Z,10.34
2018-03-24T15:31:54.558Z,10.42
2018-03-24T15:34:20.524Z,10.47
2018-03-24T15:36:46.484Z,10.33
2018-03-24T15:39:12.424Z,10.31
2018-03-24T15:41:38.426Z,10.32
2018-03-24T15:44:04.417Z,10.40
2018-03-24T15:46:30.393Z,10.31
2018-03-24T15:48:56.406Z,10.46
2018-03-24T15:51:22.372Z,10.35
2018-03-24T15:53:49.352Z,10.26
2018-03-24T15:56:15.387Z,10.32
2018-03-24T15:58:41.350Z,10.43
2018-03-24T16:01:10.431Z,10.44
2018-03-24T16:03:37.780Z,10.46
2018-03-24T16:06:03.780Z,10.51
2018-03-24T16:08:29.732Z,10.27
2018-03-24T16:10:55.688Z,10.00
2018-03-24T16:13:21.732Z,10.02
2018-03-24T16:15:47.668Z,9.75
2018-03-24T16:18:13.606Z,9.94
2018-03-24T16:20:39.570Z,9.88
2018-03-24T16:23:05.520Z,9.89
2018-03-24T16:25:31.456Z,10.11
2018-03-24T16:27:57.486Z,9.93
2018-03-24T16:30:23.457Z,9.98
2018-03-24T16:32:49.444Z,10.15
2018-03-24T16:35:15.400Z,10.24
2018-03-24T16:37:41.362Z,10.10
2018-03-24T16:40:07.308Z,10.26
2018-03-24T16:42:33.282Z,10.20
2018-03-24T16:44:59.230Z,10.21
2018-03-24T16:47:25.192Z,10.24
2018-03-24T16:49:51.147Z,10.11
2018-03-24T16:52:17.086Z,10.11
2018-03-24T16:54:43.023Z,10.17
2018-03-24T16:57:09.051Z,10.19
2018-03-24T16:59:35.006Z,10.15
2018-03-24T17:02:00.967Z,10.04
2018-03-24T17:04:26.910Z,9.91
2018-03-24T17:06:52.861Z,10.13
2018-03-24T17:09:18.799Z,10.16
2018-03-24T17:11:44.767Z,10.17
2018-03-24T17:14:10.707Z,10.06
2018-03-24T17:16:36.659Z,9.98
2018-03-24T17:19:02.622Z,9.92
2018-03-24T17:21:28.582Z,9.90
2018-03-24T17:23:54.527Z,9.91
2018-03-24T17:26:20.472Z,9.87
2018-03-24T17:28:46.426Z,9.93
2018-03-24T17:31:12.681Z,9.91
2018-03-24T17:33:38.712Z,9.68
2018-03-24T17:36:05.749Z,9.81
2018-03-24T17:38:31.695Z,9.87
2018-03-24T17:40:57.650Z,9.61
2018-03-24T17:43:23.621Z,9.52
2018-03-24T17:45:49.649Z,9.53
2018-03-24T17:48:15.736Z,9.45
2018-03-24T17:50:41.650Z,9.43
2018-03-24T17:53:07.632Z,9.43
2018-03-24T17:55:33.591Z,9.65
2018-03-24T17:57:59.532Z,9.64
2018-03-24T18:00:25.501Z,9.51
2018-03-24T18:02:51.523Z,9.37
2018-03-24T18:05:17.565Z,9.32
2018-03-24T18:07:43.519Z,9.21
2018-03-24T18:10:09.500Z,9.53
2018-03-24T18:12:35.439Z,9.69
2018-03-24T18:15:01.372Z,9.74
2018-03-24T18:17:27.325Z,9.77
2018-03-24T18:19:55.294Z,9.69
2018-03-24T18:22:21.293Z,9.69
2018-03-24T18:24:47.246Z,9.44
2018-03-24T18:27:13.192Z,9.64
2018-03-24T18:29:39.302Z,9.67
2018-03-24T18:32:05.267Z,9.69
2018-03-24T18:34:31.230Z,9.58
2018-03-24T18:36:57.183Z,9.51
2018-03-24T18:39:23.119Z,9.47
2018-03-24T18:41:49.051Z,9.47
2018-03-24T18:44:14.987Z,9.73
2018-03-24T18:46:40.940Z,9.62
2018-03-24T18:49:06.876Z,9.79
2018-03-24T18:51:32.810Z,9.75
2018-03-24T18:53:58.765Z,9.48
2018-03-24T18:56:24.710Z,9.45
2018-03-24T18:58:50.655Z,9.68
2018-03-24T19:01:16.586Z,9.53
2018-03-24T19:03:42.531Z,9.47
2018-03-24T19:06:08.538Z,9.41
2018-03-24T19:08:34.475Z,9.54
2018-03-24T19:11:00.478Z,9.19
2018-03-24T19:13:26.430Z,9.43
2018-03-24T19:15:52.398Z,9.20
2018-03-24T19:18:18.346Z,9.38
2018-03-24T19:20:45.386Z,9.18
2018-03-24T19:23:11.320Z,9.30
2018-03-24T19:25:37.382Z,9.24
2018-03-24T19:28:03.324Z,9.45
2018-03-24T19:30:29.286Z,9.49
2018-03-24T19:32:55.346Z,9.04
2018-03-24T19:35:21.289Z,9.12
2018-03-24T19:37:47.240Z,8.87
2018-03-24T19:40:13.225Z,8.81
2018-03-24T19:42:39.180Z,8.90
2018-03-24T19:45:05.135Z,9.03
2018-03-24T19:47:31.110Z,9.29
2018-03-24T19:49:58.448Z,9.21
2018-03-24T19:52:24.563Z,8.72
2018-03-24T19:54:50.590Z,8.94
2018-03-24T19:57:16.598Z,8.64
2018-03-24T19:59:42.606Z,8.91
2018-03-24T20:02:10.556Z,8.69
2018-03-24T20:04:36.622Z,8.79
2018-03-24T20:07:02.605Z,8.78
2018-03-24T20:09:28.645Z,8.88
2018-03-24T20:11:57.289Z,8.80
2018-03-24T20:14:23.885Z,8.70
2018-03-24T20:16:50.907Z,8.84
2018-03-24T20:19:16.955Z,8.47
2018-03-24T20:21:42.978Z,8.02
2018-03-24T20:24:08.980Z,8.21
2018-03-24T20:26:35.017Z,8.38
2018-03-24T20:29:01.042Z,8.48
2018-03-24T20:31:28.062Z,8.39
2018-03-24T20:33:54.114Z,8.77
2018-03-24T20:36:20.108Z,8.44
2018-03-24T20:38:46.158Z,8.45
2018-03-24T20:41:12.189Z,8.64
2018-03-24T20:43:38.142Z,8.51
2018-03-24T20:46:04.100Z,8.31
2018-03-24T20:48:30.056Z,8.13
2018-03-24T20:50:56.018Z,7.98
2018-03-24T20:53:21.976Z,7.93
2018-03-24T20:55:47.954Z,7.87
2018-03-24T20:58:13.894Z,7.54
2018-03-24T21:00:39.850Z,7.41
2018-03-24T21:03:05.824Z,7.68
2018-03-24T21:05:31.802Z,7.49
2018-03-24T21:07:57.783Z,7.19
2018-03-24T21:10:23.738Z,7.24
2018-03-24T21:12:49.679Z,7.31
2018-03-24T21:15:15.624Z,7.20
2018-03-24T21:17:41.570Z,7.15
2018-03-24T21:20:07.504Z,7.04
2018-03-24T21:22:34.491Z,6.89
2018-03-24T21:25:01.587Z,6.69
2018-03-24T21:27:27.492Z,6.77
2018-03-24T21:29:53.438Z,6.52
2018-03-24T21:32:19.398Z,6.16
2018-03-24T21:34:45.426Z,6.68
2018-03-24T21:37:11.403Z,6.71
2018-03-24T21:39:38.393Z,6.48
2018-03-24T21:42:04.364Z,6.46
2018-03-24T21:44:30.332Z,6.28
2018-03-24T21:46:56.305Z,6.41
2018-03-24T21:49:22.241Z,6.52
2018-03-24T21:51:48.241Z,6.48
2018-03-24T21:54:14.206Z,6.28
2018-03-24T21:56:40.155Z,6.33
2018-03-24T21:59:06.136Z,6.09
2018-03-24T22:01:32.107Z,6.07
2018-03-24T22:03:58.044Z,6.08
2018-03-24T22:06:23.996Z,6.13
2018-03-24T22:08:49.962Z,6.08
2018-03-24T22:11:15.957Z,6.05
2018-03-24T22:13:41.860Z,5.93
2018-03-24T22:16:07.836Z,6.57
2018-03-24T22:18:33.812Z,6.97
2018-03-24T22:20:59.780Z,6.50
2018-03-24T22:23:25.734Z,6.08
2018-03-24T22:25:51.705Z,5.90
2018-03-24T22:28:17.647Z,5.58
2018-03-24T22:30:43.621Z,6.22
2018-03-24T22:33:09.560Z,5.90
2018-03-24T22:35:35.505Z,5.36
2018-03-24T22:38:01.466Z,5.47
2018-03-24T22:40:27.425Z,6.37
2018-03-24T22:42:53.513Z,6.49
2018-03-24T22:45:19.494Z,5.86
2018-03-24T22:47:45.445Z,6.08
2018-03-24T22:50:11.413Z,5.80
2018-03-24T22:52:37.339Z,5.61
2018-03-24T22:55:03.298Z,5.76
2018-03-24T22:57:29.314Z,5.51
2018-03-24T22:59:55.272Z,5.28
2018-03-24T23:02:21.227Z,5.20
2018-03-24T23:04:47.346Z,5.12
2018-03-24T23:07:13.292Z,5.17
2018-03-24T23:09:39.279Z,5.35
2018-03-24T23:12:05.232Z,5.06
2018-03-24T23:14:31.208Z,4.99
2018-03-24T23:16:57.140Z,4.96
2018-03-24T23:19:23.080Z,4.76
2018-03-24T23:21:49.030Z,4.79
2018-03-24T23:24:14.970Z,4.86
2018-03-24T23:26:40.948Z,4.96
2018-03-24T23:29:06.893Z,5.20
2018-03-24T23:31:32.825Z,5.49
2018-03-24T23:33:58.785Z,5.21
2018-03-24T23:36:24.731Z,4.94
2018-03-24T23:38:50.659Z,5.63
2018-03-24T23:41:16.584Z,5.97
2018-03-24T23:43:42.565Z,6.17
2018-03-24T23:46:08.503Z,5.73
2018-03-24T23:48:34.439Z,5.10
2018-03-24T23:51:00.373Z,4.72
2018-03-24T23:53:26.319Z,4.74
2018-03-24T23:55:52.258Z,4.87
2018-03-24T23:58:18.206Z,4.76
